Luminous Kobe-2 — JJ3868 — position and weather

sailwx.info

Track history (hours):
 
Tides and Currents Weather Stations Pressure Air Temp Water Temp Dewpoint Dewpoint Depression Visibility Wind Speed Wind Dir Waves Ship Positions

Luminous Kobe-2

Last reported at 2014-Dec-22 13:33 UTC. Time now 2014-Dec-22 14:14 UTC.
Position N 34°41' E 135°11'.

Length 105 m; draft 4.5 m.

Type: Passenger vessel. MMSI: 431000469.

Date/timePositionNaut miles runAvg speedWind from/ knotsBaromVisibWave heightAir tempDewpointWater temp
2014-Dec-22 13:33N 34°41' E 135°11'0 0.0
2014-Dec-22 12:33N 34°41' E 135°11'6 6.4
2014-Dec-22 11:33N 34°36' E 135°07'1 0.9
2014-Dec-22 10:33N 34°36' E 135°07'5 5.4
2014-Dec-22 09:33N 34°41' E 135°11'2 2.5
2014-Dec-22 08:33N 34°38' E 135°11'2 2.0
2014-Dec-22 07:33N 34°37' E 135°13'4 3.4
2014-Dec-22 06:28N 34°41' E 135°11'0 0.0
2014-Dec-22 05:28N 34°41' E 135°11'3 2.8
2014-Dec-22 04:33N 34°38' E 135°11'3 2.5
2014-Dec-22 03:34N 34°37' E 135°14'5 3.7
2014-Dec-22 02:19N 34°41' E 135°11'0 0.0
2014-Dec-22 01:25N 34°41' E 135°11'0 0.0
2014-Dec-22 00:25N 34°41' E 135°11'0 0.0
2014-Dec-21 23:19N 34°41' E 135°11'0 0.0
2014-Dec-21 22:31N 34°41' E 135°11'0 0.0
2014-Dec-21 21:25N 34°41' E 135°11'0 0.0
2014-Dec-21 20:31N 34°41' E 135°11'0 0.0
2014-Dec-21 19:31N 34°41' E 135°11'0 0.0
2014-Dec-21 18:19N 34°41' E 135°11'0 0.0
2014-Dec-21 17:31N 34°41' E 135°11'0 0.0
2014-Dec-21 16:25N 34°41' E 135°11'0 0.0
2014-Dec-21 15:31N 34°41' E 135°11'0 0.0
2014-Dec-21 14:31N 34°41' E 135°11'0 0.0
2014-Dec-21 13:31N 34°41' E 135°11'0 0.0
2014-Dec-21 12:31N 34°41' E 135°11'6 6.0
2014-Dec-21 11:33N 34°36' E 135°07'0 0.2
2014-Dec-21 10:34N 34°36' E 135°07'6 5.0
2014-Dec-21 09:23N 34°41' E 135°11'2 3.0
2014-Dec-21 08:34N 34°38' E 135°11'3 3.0
2014-Dec-21 07:34N 34°37' E 135°14'5 4.5
2014-Dec-21 06:33N 34°41' E 135°11'0 0.0
2014-Dec-21 05:32N 34°41' E 135°11'3 2.6
2014-Dec-21 04:34N 34°38' E 135°11'3 2.7
2014-Dec-21 03:33N 34°37' E 135°14'4 4.4
2014-Dec-21 02:33N 34°41' E 135°11'0 0.0
2014-Dec-21 01:30N 34°41' E 135°11'0 0.0
2014-Dec-21 00:30N 34°41' E 135°11'0 0.0
2014-Dec-20 23:30N 34°41' E 135°11'0 0.0
2014-Dec-20 22:30N 34°41' E 135°11'0 0.0
2014-Dec-20 21:30N 34°41' E 135°11'0 0.0
2014-Dec-20 20:30N 34°41' E 135°11'0 0.0
2014-Dec-20 19:30N 34°41' E 135°11'0 0.0
2014-Dec-20 18:30N 34°41' E 135°11'0 0.0
2014-Dec-20 17:30N 34°41' E 135°11'0 0.0
2014-Dec-20 16:30N 34°41' E 135°11'0 0.0
2014-Dec-20 15:30N 34°41' E 135°11'0 0.0
2014-Dec-20 14:30N 34°41' E 135°11'0 0.0
2014-Dec-20 13:30N 34°41' E 135°11'0 0.0
2014-Dec-20 12:30N 34°41' E 135°11'6 6.6
2014-Dec-20 11:33N 34°36' E 135°06'1 0.5
2014-Dec-20 10:33N 34°37' E 135°07'6 5.6
2014-Dec-20 09:33N 34°41' E 135°11'2 2.5
2014-Dec-20 08:34N 34°38' E 135°11'2 1.7
2014-Dec-20 07:33N 34°37' E 135°13'4 3.4
2014-Dec-20 06:32N 34°41' E 135°11'0 0.0
2014-Dec-20 05:32N 34°41' E 135°11'3 2.8
2014-Dec-20 04:33N 34°38' E 135°11'2 2.1
2014-Dec-20 03:33N 34°37' E 135°13'4 3.6
2014-Dec-20 02:30N 34°41' E 135°11'0 0.0
2014-Dec-20 01:30N 34°41' E 135°11'0 0.0
2014-Dec-20 00:30N 34°41' E 135°11'0 0.0
2014-Dec-19 23:30N 34°41' E 135°11'0 0.0
2014-Dec-19 22:30N 34°41' E 135°11'0 0.0
2014-Dec-19 21:30N 34°41' E 135°11'0 0.0
2014-Dec-19 20:30N 34°41' E 135°11'0 0.0
2014-Dec-19 19:30N 34°41' E 135°11'0 0.0
2014-Dec-19 18:30N 34°41' E 135°11'0 0.0
2014-Dec-19 17:30N 34°41' E 135°11'0 0.0
2014-Dec-19 16:30N 34°41' E 135°11'0 0.0
2014-Dec-19 15:30N 34°41' E 135°11'0 0.0
2014-Dec-19 14:30N 34°41' E 135°11'0 0.0
2014-Dec-19 13:30N 34°41' E 135°11'0 0.0
2014-Dec-19 12:24N 34°41' E 135°11'7 7.8
2014-Dec-19 11:33N 34°36' E 135°06'1 0.9
2014-Dec-19 10:33N 34°36' E 135°07'6 5.7
2014-Dec-19 09:33N 34°41' E 135°11'0 0.0
2014-Dec-19 08:33N 34°41' E 135°11'5 4.8
2014-Dec-19 07:33N 34°37' E 135°07'5 4.8
2014-Dec-19 06:33N 34°41' E 135°11'0 0.0
2014-Dec-19 05:25N 34°41' E 135°11'3 3.0
2014-Dec-19 04:33N 34°38' E 135°11'2 2.3
2014-Dec-19 03:33N 34°37' E 135°13'4 4.2
2014-Dec-19 02:33N 34°41' E 135°11'0 0.0
2014-Dec-19 01:30N 34°41' E 135°11'0 0.0
2014-Dec-19 00:30N 34°41' E 135°11'0 0.0
2014-Dec-18 23:30N 34°41' E 135°11'0 0.0
2014-Dec-18 22:24N 34°41' E 135°11'0 0.0
2014-Dec-18 21:18N 34°41' E 135°11'0 0.0
2014-Dec-18 20:18N 34°41' E 135°11'0 0.0
2014-Dec-18 19:24N 34°41' E 135°11'0 0.0
2014-Dec-18 18:30N 34°41' E 135°11'0 0.0
2014-Dec-18 17:30N 34°41' E 135°11'0 0.0
2014-Dec-18 16:24N 34°41' E 135°11'0 0.0
2014-Dec-18 15:24N 34°41' E 135°11'0 0.0
2014-Dec-18 14:30N 34°41' E 135°11'0 0.0
2014-Dec-18 13:30N 34°41' E 135°11'0 0.0
2014-Dec-18 12:30N 34°41' E 135°11'6 5.9
2014-Dec-18 11:33N 34°37' E 135°07'0 0.3
2014-Dec-18 10:33N 34°37' E 135°07'6 5.6
2014-Dec-18 09:33N 34°41' E 135°11'5 4.9
2014-Dec-18 08:33N 34°37' E 135°07'5 4.8
2014-Dec-18 07:31N 34°41' E 135°11'0 0.0
2014-Dec-18 06:31N 34°41' E 135°11'0 0.0
2014-Dec-18 05:31N 34°41' E 135°11'3 2.7
2014-Dec-18 04:33N 34°38' E 135°11'3 2.7
2014-Dec-18 03:33N 34°37' E 135°14'4 3.4
2014-Dec-18 02:14N 34°41' E 135°11'0 0.0
2014-Dec-18 01:26N 34°41' E 135°11'0 0.0
2014-Dec-18 00:32N 34°41' E 135°11'0 0.0
2014-Dec-17 23:26N 34°41' E 135°11'0 0.0
2014-Dec-17 22:32N 34°41' E 135°11'0 0.0
2014-Dec-17 21:32N 34°41' E 135°11'0 0.0
2014-Dec-17 20:26N 34°41' E 135°11'0 0.0
2014-Dec-17 19:32N 34°41' E 135°11'0 0.0
2014-Dec-17 18:32N 34°41' E 135°11'0 0.0
2014-Dec-17 17:32N 34°41' E 135°11'0 0.0
2014-Dec-17 16:32N 34°41' E 135°11'0 0.0
2014-Dec-17 15:32N 34°41' E 135°11'0 0.0
2014-Dec-17 14:32N 34°41' E 135°11'0 0.0
2014-Dec-17 13:26N 34°41' E 135°11'0 0.0
2014-Dec-17 12:32N 34°41' E 135°11'7 7.1
2014-Dec-17 11:33N 34°35' E 135°06'1 1.3
2014-Dec-17 10:33N 34°37' E 135°07'6 5.3
2014-Dec-17 09:30N 34°41' E 135°11'0 0.0
2014-Dec-17 08:30N 34°41' E 135°11'4 4.8
2014-Dec-17 07:33N 34°38' E 135°08'4 4.5
2014-Dec-17 06:33N 34°41' E 135°11'0 0.0
2014-Dec-17 05:29N 34°41' E 135°11'2 2.4
2014-Dec-17 04:33N 34°39' E 135°11'3 3.0
2014-Dec-17 03:33N 34°37' E 135°14'5 4.7
2014-Dec-17 02:33N 34°41' E 135°11'0 0.0
2014-Dec-17 01:31N 34°41' E 135°11'0 0.0
2014-Dec-17 00:31N 34°41' E 135°11'0 0.0
2014-Dec-16 23:31N 34°41' E 135°11'0 0.0
2014-Dec-16 22:31N 34°41' E 135°11'0 0.0
2014-Dec-16 21:25N 34°41' E 135°11'0 0.0
2014-Dec-16 20:31N 34°41' E 135°11'0 0.0
2014-Dec-16 19:31N 34°41' E 135°11'0 0.0
2014-Dec-16 18:31N 34°41' E 135°11'0 0.0
2014-Dec-16 17:31N 34°41' E 135°11'0 0.0
2014-Dec-16 16:25N 34°41' E 135°11'0 0.0
2014-Dec-16 15:31N 34°41' E 135°11'0 0.0
2014-Dec-16 14:31N 34°41' E 135°11'0 0.0
2014-Dec-16 13:31N 34°41' E 135°11'0 0.0
2014-Dec-16 12:31N 34°41' E 135°11'8 8.0
2014-Dec-16 11:33N 34°35' E 135°05'2 2.2
2014-Dec-16 10:33N 34°37' E 135°07'5 5.5
2014-Dec-16 09:33N 34°41' E 135°11'0 0.0
2014-Dec-16 08:29N 34°41' E 135°11'5 5.1
2014-Dec-16 07:33N 34°37' E 135°07'5 4.5
2014-Dec-16 06:30N 34°41' E 135°11'0 0.0
2014-Dec-16 05:24N 34°41' E 135°11'3 3.1
2014-Dec-16 04:33N 34°38' E 135°11'3 2.5
2014-Dec-16 03:32N 34°37' E 135°13'4 1.8
2014-Dec-16 01:04N 34°41' E 135°11'0 0.0
2014-Dec-15 23:16N 34°41' E 135°11'0 0.0
2014-Dec-15 22:22N 34°41' E 135°11'0 0.0
2014-Dec-15 21:22N 34°41' E 135°11'0 0.0
2014-Dec-15 20:28N 34°41' E 135°11'0 0.0
2014-Dec-15 19:28N 34°41' E 135°11'0 0.0
2014-Dec-15 18:16N 34°41' E 135°11'0 0.0
2014-Dec-15 17:28N 34°41' E 135°11'0 0.0
2014-Dec-15 16:28N 34°41' E 135°11'0 0.0
2014-Dec-15 15:16N 34°41' E 135°11'0 0.0
2014-Dec-15 14:28N 34°41' E 135°11'0 0.0
2014-Dec-15 13:22N 34°41' E 135°11'0 0.0
2014-Dec-15 12:28N 34°41' E 135°11'6 6.8
2014-Dec-15 11:33N 34°36' E 135°07'1 0.6
2014-Dec-15 10:33N 34°36' E 135°08'6 4.9
2014-Dec-15 09:25N 34°41' E 135°11'0 0.0
2014-Dec-15 08:31N 34°41' E 135°11'5 4.8
2014-Dec-15 07:33N 34°38' E 135°07'5 4.5
2014-Dec-15 06:33N 34°41' E 135°11'0 0.0
2014-Dec-15 05:33N 34°41' E 135°11'3 2.8
2014-Dec-15 04:33N 34°38' E 135°11'2 2.2
2014-Dec-15 03:33N 34°37' E 135°13'4 3.8
2014-Dec-15 02:33N 34°41' E 135°11'0 0.0
2014-Dec-15 01:18N 34°41' E 135°11'0 0.0
2014-Dec-15 00:18N 34°41' E 135°11'0 0.0
2014-Dec-14 23:18N 34°41' E 135°11'0 0.0
2014-Dec-14 22:30N 34°41' E 135°11'0 0.0
2014-Dec-14 21:30N 34°41' E 135°11'0 0.0
2014-Dec-14 20:30N 34°41' E 135°11'0 0.0
2014-Dec-14 19:30N 34°41' E 135°11'0 0.0
2014-Dec-14 18:30N 34°41' E 135°11'0 0.0
2014-Dec-14 17:30N 34°41' E 135°11'0 0.0
2014-Dec-14 16:30N 34°41' E 135°11'0 0.0
2014-Dec-14 15:30N 34°41' E 135°11'0 0.0
2014-Dec-14 14:30N 34°41' E 135°11'0 0.0
2014-Dec-14 13:30N 34°41' E 135°11'0 0.0
2014-Dec-14 12:30N 34°41' E 135°11'8 9.0
2014-Dec-14 11:34N 34°35' E 135°04'3 3.3
2014-Dec-14 10:33N 34°37' E 135°07'5 5.4
2014-Dec-14 09:33N 34°41' E 135°11'7 6.6
2014-Dec-14 08:34N 34°35' E 135°07'2 2.0
2014-Dec-14 07:33N 34°37' E 135°08'5 4.1
2014-Dec-14 06:27N 34°41' E 135°11'0 0.0
2014-Dec-14 05:27N 34°41' E 135°11'3 2.8
2014-Dec-14 04:33N 34°38' E 135°11'2 2.3
2014-Dec-14 03:33N 34°37' E 135°14'4 3.7
2014-Dec-14 02:30N 34°41' E 135°11'0 0.0
2014-Dec-14 01:30N 34°41' E 135°11'0 0.0
2014-Dec-14 00:24N 34°41' E 135°11'0 0.0
2014-Dec-13 23:06N 34°41' E 135°11'0 0.0
2014-Dec-13 22:30N 34°41' E 135°11'0 0.0
2014-Dec-13 21:30N 34°41' E 135°11'0 0.0
2014-Dec-13 20:30N 34°41' E 135°11'0 0.0
2014-Dec-13 19:18N 34°41' E 135°11'0 0.0
2014-Dec-13 18:24N 34°41' E 135°11'0 0.0
2014-Dec-13 17:30N 34°41' E 135°11'0 0.0
2014-Dec-13 16:30N 34°41' E 135°11'0 0.0
2014-Dec-13 15:24N 34°41' E 135°11'0 0.0
2014-Dec-13 14:30N 34°41' E 135°11'0 0.0
2014-Dec-13 13:24N 34°41' E 135°11'0 0.0
2014-Dec-13 12:30N 34°41' E 135°11'6 6.9
2014-Dec-13 11:33N 34°36' E 135°06'1 0.8
2014-Dec-13 10:33N 34°37' E 135°07'6 5.7
2014-Dec-13 09:33N 34°41' E 135°11'2 2.4
2014-Dec-13 08:33N 34°38' E 135°11'3 3.1
2014-Dec-13 07:34N 34°37' E 135°14'5 4.5
2014-Dec-13 06:33N 34°41' E 135°11'0 0.0
2014-Dec-13 05:29N 34°41' E 135°11'3 2.9
2014-Dec-13 04:33N 34°38' E 135°11'2 2.5
2014-Dec-13 03:33N 34°37' E 135°14'4 4.1
2014-Dec-13 02:33N 34°41' E 135°11'0 0.0
2014-Dec-13 01:29N 34°41' E 135°11'0 0.0
2014-Dec-13 00:17N 34°41' E 135°11'0 0.0
2014-Dec-12 23:29N 34°41' E 135°11'0 0.0
2014-Dec-12 22:29N 34°41' E 135°11'0 0.0
2014-Dec-12 21:29N 34°41' E 135°11'0 0.0
2014-Dec-12 20:29N 34°41' E 135°11'0 0.0
2014-Dec-12 19:29N 34°41' E 135°11'0 0.0
2014-Dec-12 18:29N 34°41' E 135°11'0 0.0
2014-Dec-12 17:23N 34°41' E 135°11'0 0.0
2014-Dec-12 16:29N 34°41' E 135°11'0 0.0
2014-Dec-12 15:29N 34°41' E 135°11'0 0.0
2014-Dec-12 14:29N 34°41' E 135°11'  
Track history (hours):
 
Tides and Currents Weather Stations Pressure Air Temp Water Temp Dewpoint Dewpoint Depression Visibility Wind Speed Wind Dir Waves Ship Positions

Luminous Kobe-2

Last reported at 2014-Dec-22 13:33 UTC. Time now 2014-Dec-22 14:14 UTC.
Position N 34°41' E 135°11'.

Length 105 m; draft 4.5 m.

Type: Passenger vessel. MMSI: 431000469.

Date/timePositionNaut miles runAvg speedWind from/ knotsBaromVisibWave heightAir tempDewpointWater temp
2014-Dec-22 13:33N 34°41' E 135°11'0 0.0
2014-Dec-22 12:33N 34°41' E 135°11'6 6.4
2014-Dec-22 11:33N 34°36' E 135°07'1 0.9
2014-Dec-22 10:33N 34°36' E 135°07'5 5.4
2014-Dec-22 09:33N 34°41' E 135°11'2 2.5
2014-Dec-22 08:33N 34°38' E 135°11'2 2.0
2014-Dec-22 07:33N 34°37' E 135°13'4 3.4
2014-Dec-22 06:28N 34°41' E 135°11'0 0.0
2014-Dec-22 05:28N 34°41' E 135°11'3 2.8
2014-Dec-22 04:33N 34°38' E 135°11'3 2.5
2014-Dec-22 03:34N 34°37' E 135°14'5 3.7
2014-Dec-22 02:19N 34°41' E 135°11'0 0.0
2014-Dec-22 01:25N 34°41' E 135°11'0 0.0
2014-Dec-22 00:25N 34°41' E 135°11'0 0.0
2014-Dec-21 23:19N 34°41' E 135°11'0 0.0
2014-Dec-21 22:31N 34°41' E 135°11'0 0.0
2014-Dec-21 21:25N 34°41' E 135°11'0 0.0
2014-Dec-21 20:31N 34°41' E 135°11'0 0.0
2014-Dec-21 19:31N 34°41' E 135°11'0 0.0
2014-Dec-21 18:19N 34°41' E 135°11'0 0.0
2014-Dec-21 17:31N 34°41' E 135°11'0 0.0
2014-Dec-21 16:25N 34°41' E 135°11'0 0.0
2014-Dec-21 15:31N 34°41' E 135°11'0 0.0
2014-Dec-21 14:31N 34°41' E 135°11'0 0.0
2014-Dec-21 13:31N 34°41' E 135°11'0 0.0
2014-Dec-21 12:31N 34°41' E 135°11'6 6.0
2014-Dec-21 11:33N 34°36' E 135°07'0 0.2
2014-Dec-21 10:34N 34°36' E 135°07'6 5.0
2014-Dec-21 09:23N 34°41' E 135°11'2 3.0
2014-Dec-21 08:34N 34°38' E 135°11'3 3.0
2014-Dec-21 07:34N 34°37' E 135°14'5 4.5
2014-Dec-21 06:33N 34°41' E 135°11'0 0.0
2014-Dec-21 05:32N 34°41' E 135°11'3 2.6
2014-Dec-21 04:34N 34°38' E 135°11'3 2.7
2014-Dec-21 03:33N 34°37' E 135°14'4 4.4
2014-Dec-21 02:33N 34°41' E 135°11'0 0.0
2014-Dec-21 01:30N 34°41' E 135°11'0 0.0
2014-Dec-21 00:30N 34°41' E 135°11'0 0.0
2014-Dec-20 23:30N 34°41' E 135°11'0 0.0
2014-Dec-20 22:30N 34°41' E 135°11'0 0.0
2014-Dec-20 21:30N 34°41' E 135°11'0 0.0
2014-Dec-20 20:30N 34°41' E 135°11'0 0.0
2014-Dec-20 19:30N 34°41' E 135°11'0 0.0
2014-Dec-20 18:30N 34°41' E 135°11'0 0.0
2014-Dec-20 17:30N 34°41' E 135°11'0 0.0
2014-Dec-20 16:30N 34°41' E 135°11'0 0.0
2014-Dec-20 15:30N 34°41' E 135°11'0 0.0
2014-Dec-20 14:30N 34°41' E 135°11'0 0.0
2014-Dec-20 13:30N 34°41' E 135°11'0 0.0
2014-Dec-20 12:30N 34°41' E 135°11'6 6.6
2014-Dec-20 11:33N 34°36' E 135°06'1 0.5
2014-Dec-20 10:33N 34°37' E 135°07'6 5.6
2014-Dec-20 09:33N 34°41' E 135°11'2 2.5
2014-Dec-20 08:34N 34°38' E 135°11'2 1.7
2014-Dec-20 07:33N 34°37' E 135°13'4 3.4
2014-Dec-20 06:32N 34°41' E 135°11'0 0.0
2014-Dec-20 05:32N 34°41' E 135°11'3 2.8
2014-Dec-20 04:33N 34°38' E 135°11'2 2.1
2014-Dec-20 03:33N 34°37' E 135°13'4 3.6
2014-Dec-20 02:30N 34°41' E 135°11'0 0.0
2014-Dec-20 01:30N 34°41' E 135°11'0 0.0
2014-Dec-20 00:30N 34°41' E 135°11'0 0.0
2014-Dec-19 23:30N 34°41' E 135°11'0 0.0
2014-Dec-19 22:30N 34°41' E 135°11'0 0.0
2014-Dec-19 21:30N 34°41' E 135°11'0 0.0
2014-Dec-19 20:30N 34°41' E 135°11'0 0.0
2014-Dec-19 19:30N 34°41' E 135°11'0 0.0
2014-Dec-19 18:30N 34°41' E 135°11'0 0.0
2014-Dec-19 17:30N 34°41' E 135°11'0 0.0
2014-Dec-19 16:30N 34°41' E 135°11'0 0.0
2014-Dec-19 15:30N 34°41' E 135°11'0 0.0
2014-Dec-19 14:30N 34°41' E 135°11'0 0.0
2014-Dec-19 13:30N 34°41' E 135°11'0 0.0
2014-Dec-19 12:24N 34°41' E 135°11'7 7.8
2014-Dec-19 11:33N 34°36' E 135°06'1 0.9
2014-Dec-19 10:33N 34°36' E 135°07'6 5.7
2014-Dec-19 09:33N 34°41' E 135°11'0 0.0
2014-Dec-19 08:33N 34°41' E 135°11'5 4.8
2014-Dec-19 07:33N 34°37' E 135°07'5 4.8
2014-Dec-19 06:33N 34°41' E 135°11'0 0.0
2014-Dec-19 05:25N 34°41' E 135°11'3 3.0
2014-Dec-19 04:33N 34°38' E 135°11'2 2.3
2014-Dec-19 03:33N 34°37' E 135°13'4 4.2
2014-Dec-19 02:33N 34°41' E 135°11'0 0.0
2014-Dec-19 01:30N 34°41' E 135°11'0 0.0
2014-Dec-19 00:30N 34°41' E 135°11'0 0.0
2014-Dec-18 23:30N 34°41' E 135°11'0 0.0
2014-Dec-18 22:24N 34°41' E 135°11'0 0.0
2014-Dec-18 21:18N 34°41' E 135°11'0 0.0
2014-Dec-18 20:18N 34°41' E 135°11'0 0.0
2014-Dec-18 19:24N 34°41' E 135°11'0 0.0
2014-Dec-18 18:30N 34°41' E 135°11'0 0.0
2014-Dec-18 17:30N 34°41' E 135°11'0 0.0
2014-Dec-18 16:24N 34°41' E 135°11'0 0.0
2014-Dec-18 15:24N 34°41' E 135°11'0 0.0
2014-Dec-18 14:30N 34°41' E 135°11'0 0.0
2014-Dec-18 13:30N 34°41' E 135°11'0 0.0
2014-Dec-18 12:30N 34°41' E 135°11'6 5.9
2014-Dec-18 11:33N 34°37' E 135°07'0 0.3
2014-Dec-18 10:33N 34°37' E 135°07'6 5.6
2014-Dec-18 09:33N 34°41' E 135°11'5 4.9
2014-Dec-18 08:33N 34°37' E 135°07'5 4.8
2014-Dec-18 07:31N 34°41' E 135°11'0 0.0
2014-Dec-18 06:31N 34°41' E 135°11'0 0.0
2014-Dec-18 05:31N 34°41' E 135°11'3 2.7
2014-Dec-18 04:33N 34°38' E 135°11'3 2.7
2014-Dec-18 03:33N 34°37' E 135°14'4 3.4
2014-Dec-18 02:14N 34°41' E 135°11'0 0.0
2014-Dec-18 01:26N 34°41' E 135°11'0 0.0
2014-Dec-18 00:32N 34°41' E 135°11'0 0.0
2014-Dec-17 23:26N 34°41' E 135°11'0 0.0
2014-Dec-17 22:32N 34°41' E 135°11'0 0.0
2014-Dec-17 21:32N 34°41' E 135°11'0 0.0
2014-Dec-17 20:26N 34°41' E 135°11'0 0.0
2014-Dec-17 19:32N 34°41' E 135°11'0 0.0
2014-Dec-17 18:32N 34°41' E 135°11'0 0.0
2014-Dec-17 17:32N 34°41' E 135°11'0 0.0
2014-Dec-17 16:32N 34°41' E 135°11'0 0.0
2014-Dec-17 15:32N 34°41' E 135°11'0 0.0
2014-Dec-17 14:32N 34°41' E 135°11'0 0.0
2014-Dec-17 13:26N 34°41' E 135°11'0 0.0
2014-Dec-17 12:32N 34°41' E 135°11'7 7.1
2014-Dec-17 11:33N 34°35' E 135°06'1 1.3
2014-Dec-17 10:33N 34°37' E 135°07'6 5.3
2014-Dec-17 09:30N 34°41' E 135°11'0 0.0
2014-Dec-17 08:30N 34°41' E 135°11'4 4.8
2014-Dec-17 07:33N 34°38' E 135°08'4 4.5
2014-Dec-17 06:33N 34°41' E 135°11'0 0.0
2014-Dec-17 05:29N 34°41' E 135°11'2 2.4
2014-Dec-17 04:33N 34°39' E 135°11'3 3.0
2014-Dec-17 03:33N 34°37' E 135°14'5 4.7
2014-Dec-17 02:33N 34°41' E 135°11'0 0.0
2014-Dec-17 01:31N 34°41' E 135°11'0 0.0
2014-Dec-17 00:31N 34°41' E 135°11'0 0.0
2014-Dec-16 23:31N 34°41' E 135°11'0 0.0
2014-Dec-16 22:31N 34°41' E 135°11'0 0.0
2014-Dec-16 21:25N 34°41' E 135°11'0 0.0
2014-Dec-16 20:31N 34°41' E 135°11'0 0.0
2014-Dec-16 19:31N 34°41' E 135°11'0 0.0
2014-Dec-16 18:31N 34°41' E 135°11'0 0.0
2014-Dec-16 17:31N 34°41' E 135°11'0 0.0
2014-Dec-16 16:25N 34°41' E 135°11'0 0.0
2014-Dec-16 15:31N 34°41' E 135°11'0 0.0
2014-Dec-16 14:31N 34°41' E 135°11'0 0.0
2014-Dec-16 13:31N 34°41' E 135°11'0 0.0
2014-Dec-16 12:31N 34°41' E 135°11'8 8.0
2014-Dec-16 11:33N 34°35' E 135°05'2 2.2
2014-Dec-16 10:33N 34°37' E 135°07'5 5.5
2014-Dec-16 09:33N 34°41' E 135°11'0 0.0
2014-Dec-16 08:29N 34°41' E 135°11'5 5.1
2014-Dec-16 07:33N 34°37' E 135°07'5 4.5
2014-Dec-16 06:30N 34°41' E 135°11'0 0.0
2014-Dec-16 05:24N 34°41' E 135°11'3 3.1
2014-Dec-16 04:33N 34°38' E 135°11'3 2.5
2014-Dec-16 03:32N 34°37' E 135°13'4 1.8
2014-Dec-16 01:04N 34°41' E 135°11'0 0.0
2014-Dec-15 23:16N 34°41' E 135°11'0 0.0
2014-Dec-15 22:22N 34°41' E 135°11'0 0.0
2014-Dec-15 21:22N 34°41' E 135°11'0 0.0
2014-Dec-15 20:28N 34°41' E 135°11'0 0.0
2014-Dec-15 19:28N 34°41' E 135°11'0 0.0
2014-Dec-15 18:16N 34°41' E 135°11'0 0.0
2014-Dec-15 17:28N 34°41' E 135°11'0 0.0
2014-Dec-15 16:28N 34°41' E 135°11'0 0.0
2014-Dec-15 15:16N 34°41' E 135°11'0 0.0
2014-Dec-15 14:28N 34°41' E 135°11'0 0.0
2014-Dec-15 13:22N 34°41' E 135°11'0 0.0
2014-Dec-15 12:28N 34°41' E 135°11'6 6.8
2014-Dec-15 11:33N 34°36' E 135°07'1 0.6
2014-Dec-15 10:33N 34°36' E 135°08'6 4.9
2014-Dec-15 09:25N 34°41' E 135°11'0 0.0
2014-Dec-15 08:31N 34°41' E 135°11'5 4.8
2014-Dec-15 07:33N 34°38' E 135°07'5 4.5
2014-Dec-15 06:33N 34°41' E 135°11'0 0.0
2014-Dec-15 05:33N 34°41' E 135°11'3 2.8
2014-Dec-15 04:33N 34°38' E 135°11'2 2.2
2014-Dec-15 03:33N 34°37' E 135°13'4 3.8
2014-Dec-15 02:33N 34°41' E 135°11'0 0.0
2014-Dec-15 01:18N 34°41' E 135°11'0 0.0
2014-Dec-15 00:18N 34°41' E 135°11'0 0.0
2014-Dec-14 23:18N 34°41' E 135°11'0 0.0
2014-Dec-14 22:30N 34°41' E 135°11'0 0.0
2014-Dec-14 21:30N 34°41' E 135°11'0 0.0
2014-Dec-14 20:30N 34°41' E 135°11'0 0.0
2014-Dec-14 19:30N 34°41' E 135°11'0 0.0
2014-Dec-14 18:30N 34°41' E 135°11'0 0.0
2014-Dec-14 17:30N 34°41' E 135°11'0 0.0
2014-Dec-14 16:30N 34°41' E 135°11'0 0.0
2014-Dec-14 15:30N 34°41' E 135°11'0 0.0
2014-Dec-14 14:30N 34°41' E 135°11'0 0.0
2014-Dec-14 13:30N 34°41' E 135°11'0 0.0
2014-Dec-14 12:30N 34°41' E 135°11'8 9.0
2014-Dec-14 11:34N 34°35' E 135°04'3 3.3
2014-Dec-14 10:33N 34°37' E 135°07'5 5.4
2014-Dec-14 09:33N 34°41' E 135°11'7 6.6
2014-Dec-14 08:34N 34°35' E 135°07'2 2.0
2014-Dec-14 07:33N 34°37' E 135°08'5 4.1
2014-Dec-14 06:27N 34°41' E 135°11'0 0.0
2014-Dec-14 05:27N 34°41' E 135°11'3 2.8
2014-Dec-14 04:33N 34°38' E 135°11'2 2.3
2014-Dec-14 03:33N 34°37' E 135°14'4 3.7
2014-Dec-14 02:30N 34°41' E 135°11'0 0.0
2014-Dec-14 01:30N 34°41' E 135°11'0 0.0
2014-Dec-14 00:24N 34°41' E 135°11'0 0.0
2014-Dec-13 23:06N 34°41' E 135°11'0 0.0
2014-Dec-13 22:30N 34°41' E 135°11'0 0.0
2014-Dec-13 21:30N 34°41' E 135°11'0 0.0
2014-Dec-13 20:30N 34°41' E 135°11'0 0.0
2014-Dec-13 19:18N 34°41' E 135°11'0 0.0
2014-Dec-13 18:24N 34°41' E 135°11'0 0.0
2014-Dec-13 17:30N 34°41' E 135°11'0 0.0
2014-Dec-13 16:30N 34°41' E 135°11'0 0.0
2014-Dec-13 15:24N 34°41' E 135°11'0 0.0
2014-Dec-13 14:30N 34°41' E 135°11'0 0.0
2014-Dec-13 13:24N 34°41' E 135°11'0 0.0
2014-Dec-13 12:30N 34°41' E 135°11'6 6.9
2014-Dec-13 11:33N 34°36' E 135°06'1 0.8
2014-Dec-13 10:33N 34°37' E 135°07'6 5.7
2014-Dec-13 09:33N 34°41' E 135°11'2 2.4
2014-Dec-13 08:33N 34°38' E 135°11'3 3.1
2014-Dec-13 07:34N 34°37' E 135°14'5 4.5
2014-Dec-13 06:33N 34°41' E 135°11'0 0.0
2014-Dec-13 05:29N 34°41' E 135°11'3 2.9
2014-Dec-13 04:33N 34°38' E 135°11'2 2.5
2014-Dec-13 03:33N 34°37' E 135°14'4 4.1
2014-Dec-13 02:33N 34°41' E 135°11'0 0.0
2014-Dec-13 01:29N 34°41' E 135°11'0 0.0
2014-Dec-13 00:17N 34°41' E 135°11'0 0.0
2014-Dec-12 23:29N 34°41' E 135°11'0 0.0
2014-Dec-12 22:29N 34°41' E 135°11'0 0.0
2014-Dec-12 21:29N 34°41' E 135°11'0 0.0
2014-Dec-12 20:29N 34°41' E 135°11'0 0.0
2014-Dec-12 19:29N 34°41' E 135°11'0 0.0
2014-Dec-12 18:29N 34°41' E 135°11'0 0.0
2014-Dec-12 17:23N 34°41' E 135°11'0 0.0
2014-Dec-12 16:29N 34°41' E 135°11'0 0.0
2014-Dec-12 15:29N 34°41' E 135°11'0 0.0
2014-Dec-12 14:29N 34°41' E 135°11'  

Dump ship's entire track history